Time;durP1;ratioP1;P1;durP2;ratioP2;P2;SDS_P1;SDS_P2;PMS_P1;PMS_P2;Temp;Humidity;BMP_temperature;BMP_pressure;BME280_temperature;BME280_humidity;BME280_pressure;Samples;Min_cycle;Max_cycle;Signal;HPM_P1;HPM_P2
2022/05/16 00:00:00;;;;;;;2.27;2.07;;;10.70;99.90;;;;;;5033566;28;20753;-64
2022/05/16 00:02:26;;;;;;;2.57;2.33;;;10.70;99.90;;;;;;5033810;28;20452;-68
2022/05/16 00:04:52;;;;;;;3.23;2.00;;;10.60;99.90;;;;;;5033406;28;20428;-67
2022/05/16 00:07:20;;;;;;;3.73;2.20;;;10.60;99.90;;;;;;5032710;28;20172;-66
2022/05/16 00:09:46;;;;;;;2.90;1.90;;;10.60;99.90;;;;;;5033441;28;20258;-68
2022/05/16 00:12:13;;;;;;;2.60;2.37;;;10.60;99.90;;;;;;5033318;28;20913;-64
2022/05/16 00:14:40;;;;;;;2.43;2.30;;;10.60;99.90;;;;;;5033369;28;20780;-64
2022/05/16 00:17:06;;;;;;;3.47;2.23;;;10.60;99.90;;;;;;5032544;28;20450;-64
2022/05/16 00:19:32;;;;;;;2.43;2.23;;;10.60;99.90;;;;;;5033033;28;20791;-64
2022/05/16 00:21:58;;;;;;;3.37;1.90;;;10.50;99.90;;;;;;5033510;28;20394;-65
2022/05/16 00:24:26;;;;;;;2.03;1.93;;;10.50;99.90;;;;;;5033170;28;20167;-68
2022/05/16 00:26:53;;;;;;;2.90;2.33;;;10.50;99.90;;;;;;5030750;28;20384;-65
2022/05/16 00:29:19;;;;;;;5.20;2.40;;;10.50;99.90;;;;;;5032972;28;20418;-69
2022/05/16 00:31:45;;;;;;;4.20;3.00;;;10.40;99.90;;;;;;5033172;28;20449;-68
2022/05/16 00:34:11;;;;;;;2.47;2.27;;;10.50;99.90;;;;;;5033407;28;20453;-68
2022/05/16 00:36:36;;;;;;;3.43;2.83;;;10.50;99.90;;;;;;5032218;28;20191;-69
2022/05/16 00:39:03;;;;;;;2.53;2.33;;;10.50;99.90;;;;;;5032094;28;20522;-64
2022/05/16 00:41:28;;;;;;;2.47;2.27;;;10.50;99.90;;;;;;5032885;28;20175;-67
2022/05/16 00:43:57;;;;;;;2.70;2.20;;;10.40;99.90;;;;;;5032284;28;20439;-64
2022/05/16 00:46:32;;;;;;;3.10;2.53;;;10.40;99.90;;;;;;5032432;28;20640;-64
2022/05/16 00:49:00;;;;;;;5.23;2.80;;;10.40;99.90;;;;;;5034968;28;20472;-68
2022/05/16 00:51:29;;;;;;;6.20;2.30;;;10.40;99.90;;;;;;5036846;28;20372;-65
2022/05/16 00:54:00;;;;;;;5.63;2.57;;;10.40;99.90;;;;;;5037343;28;20933;-64
2022/05/16 00:56:27;;;;;;;2.80;2.60;;;10.40;99.90;;;;;;5035316;28;20789;-67
2022/05/16 00:58:53;;;;;;;2.57;2.37;;;10.30;99.90;;;;;;5036513;28;20418;-68
2022/05/16 01:06:49;;;;;;;3.00;2.70;;;10.30;99.90;;;;;;5035914;28;21160;-69
2022/05/16 01:09:14;;;;;;;3.67;2.57;;;10.30;99.90;;;;;;5037020;28;20415;-65
2022/05/16 01:11:41;;;;;;;3.00;2.40;;;10.20;99.90;;;;;;5035604;28;20986;-68
2022/05/16 01:14:07;;;;;;;2.93;2.63;;;10.20;99.90;;;;;;5035486;28;20171;-68
2022/05/16 01:16:33;;;;;;;6.43;3.00;;;10.20;99.90;;;;;;5035584;28;20459;-68
2022/05/16 01:18:59;;;;;;;6.00;2.63;;;10.20;99.90;;;;;;5036858;28;20262;-64
2022/05/16 01:21:37;;;;;;;2.83;2.47;;;10.20;99.90;;;;;;5036535;28;20966;-69
2022/05/16 01:24:12;;;;;;;2.70;2.40;;;10.20;99.90;;;;;;5035193;28;20175;-64
2022/05/16 01:26:39;;;;;;;2.60;2.40;;;10.20;99.90;;;;;;5034361;28;20509;-69
2022/05/16 01:29:06;;;;;;;2.57;2.47;;;10.20;99.90;;;;;;5035458;28;20950;-68
2022/05/16 01:31:32;;;;;;;4.03;2.97;;;10.10;99.90;;;;;;5035273;28;20385;-65
2022/05/16 01:33:57;;;;;;;3.63;3.20;;;10.20;99.90;;;;;;5036204;28;20426;-65
2022/05/16 01:36:24;;;;;;;4.23;3.20;;;10.10;99.90;;;;;;5035946;28;20461;-68
2022/05/16 01:38:50;;;;;;;5.10;2.97;;;10.10;99.90;;;;;;5035397;28;20334;-69
2022/05/16 01:41:19;;;;;;;3.23;2.63;;;10.10;99.90;;;;;;5034846;28;20751;-69
2022/05/16 01:43:48;;;;;;;2.83;2.53;;;10.10;99.90;;;;;;5035848;28;20397;-65
2022/05/16 01:46:17;;;;;;;3.50;3.20;;;10.10;99.90;;;;;;5036105;28;20497;-69
2022/05/16 01:48:43;;;;;;;2.87;2.67;;;10.10;99.90;;;;;;5035230;28;20437;-64
2022/05/16 01:51:11;;;;;;;3.93;3.67;;;10.10;99.90;;;;;;5035874;28;20406;-64
2022/05/16 01:53:38;;;;;;;5.30;3.33;;;10.10;99.90;;;;;;5035871;28;20429;-67
2022/05/16 01:56:05;;;;;;;4.17;2.80;;;10.10;99.90;;;;;;5035870;28;20777;-65
2022/05/16 01:58:30;;;;;;;2.90;2.60;;;10.10;99.90;;;;;;5034586;28;20446;-67
2022/05/16 02:00:56;;;;;;;5.90;3.73;;;10.10;99.90;;;;;;5033894;28;20443;-65
2022/05/16 02:03:23;;;;;;;2.83;2.60;;;10.20;99.90;;;;;;5035626;28;20430;-68
2022/05/16 02:05:48;;;;;;;2.90;2.70;;;10.20;99.90;;;;;;5035857;28;20433;-65
2022/05/16 02:08:15;;;;;;;3.50;3.20;;;10.20;99.90;;;;;;5034486;28;20438;-64
2022/05/16 02:10:41;;;;;;;3.20;2.90;;;10.20;99.90;;;;;;5035846;28;20168;-68
2022/05/16 02:13:08;;;;;;;2.93;2.60;;;10.20;99.90;;;;;;5035567;28;20414;-63
2022/05/16 02:15:36;;;;;;;6.20;3.17;;;10.20;99.90;;;;;;5034454;28;20425;-68
2022/05/16 02:18:04;;;;;;;6.67;3.67;;;10.20;99.90;;;;;;5033643;28;20421;-64
2022/05/16 02:20:29;;;;;;;6.50;3.50;;;10.30;99.90;;;;;;5035388;28;20492;-68
2022/05/16 02:25:44;;;;;;;7.63;2.90;;;10.30;99.90;;;;;;5035694;28;20662;-65
2022/05/16 02:28:14;;;;;;;3.40;3.10;;;10.30;99.90;;;;;;5034471;28;20433;-68
2022/05/16 02:30:41;;;;;;;5.43;3.27;;;10.40;99.90;;;;;;5035141;28;20396;-64
2022/05/16 02:33:08;;;;;;;4.10;3.43;;;10.40;99.90;;;;;;5034105;28;20761;-67
2022/05/16 02:35:34;;;;;;;4.67;2.90;;;10.40;99.90;;;;;;5035032;28;20428;-66
2022/05/16 02:38:00;;;;;;;6.90;3.93;;;10.40;99.90;;;;;;5034057;28;21027;-65
2022/05/16 02:40:30;;;;;;;4.03;3.23;;;10.50;99.90;;;;;;5034922;28;20180;-64
2022/05/16 02:42:57;;;;;;;3.50;3.20;;;10.50;99.90;;;;;;5035297;28;20380;-67
2022/05/16 02:45:24;;;;;;;2.87;2.67;;;10.50;99.90;;;;;;5034939;28;20883;-69
2022/05/16 02:47:49;;;;;;;3.20;3.00;;;10.50;99.90;;;;;;5034336;28;20418;-64
2022/05/16 02:50:15;;;;;;;5.17;3.07;;;10.60;99.90;;;;;;5034574;28;20414;-64
2022/05/16 02:52:41;;;;;;;6.87;2.93;;;10.60;99.90;;;;;;5034851;28;20237;-67
2022/05/16 02:55:08;;;;;;;4.10;3.17;;;10.60;99.90;;;;;;5034357;28;20425;-64
2022/05/16 02:57:34;;;;;;;4.23;3.27;;;10.60;99.90;;;;;;5033860;28;20528;-68
2022/05/16 03:00:00;;;;;;;7.30;3.40;;;10.70;99.90;;;;;;5034523;28;20421;-65
2022/05/16 03:02:26;;;;;;;3.60;3.00;;;10.70;99.90;;;;;;5034519;28;20992;-68
2022/05/16 03:04:53;;;;;;;3.00;2.80;;;10.70;99.90;;;;;;5034763;28;20156;-64
2022/05/16 03:07:18;;;;;;;3.83;2.70;;;10.70;99.90;;;;;;5033623;28;20402;-69
2022/05/16 03:09:44;;;;;;;7.50;3.47;;;10.70;99.90;;;;;;5034223;28;20802;-64
2022/05/16 03:12:10;;;;;;;3.53;3.23;;;10.70;99.90;;;;;;5034351;28;20430;-68
2022/05/16 03:14:36;;;;;;;2.87;2.67;;;10.70;99.90;;;;;;5034386;28;20258;-65
2022/05/16 03:17:03;;;;;;;9.80;3.30;;;10.80;99.90;;;;;;5033598;28;21012;-68
2022/05/16 03:19:30;;;;;;;4.40;3.73;;;10.80;99.90;;;;;;5034160;28;20291;-68
2022/05/16 03:21:56;;;;;;;3.80;3.03;;;10.80;99.90;;;;;;5034314;28;20389;-69
2022/05/16 03:24:21;;;;;;;4.37;3.63;;;10.80;99.90;;;;;;5034540;28;20369;-65
2022/05/16 03:26:47;;;;;;;3.83;3.37;;;10.80;99.90;;;;;;5033163;28;20396;-69
2022/05/16 03:29:13;;;;;;;4.13;2.77;;;10.90;99.90;;;;;;5033838;28;20218;-65
2022/05/16 03:31:40;;;;;;;3.80;3.03;;;10.90;99.90;;;;;;5032818;28;20179;-65
2022/05/16 03:34:07;;;;;;;3.70;3.10;;;10.90;99.90;;;;;;5034404;28;20412;-64
2022/05/16 03:36:34;;;;;;;7.03;4.10;;;10.90;99.90;;;;;;5032908;28;20429;-69
2022/05/16 03:41:44;;;;;;;6.57;3.20;;;10.90;99.90;;;;;;5034201;28;20424;-68
2022/05/16 03:44:10;;;;;;;4.77;3.63;;;11.00;99.90;;;;;;5033816;28;20806;-69
2022/05/16 03:46:37;;;;;;;4.80;3.60;;;11.00;99.90;;;;;;5032427;28;20171;-65
2022/05/16 03:49:04;;;;;;;5.17;3.50;;;11.00;99.90;;;;;;5033870;28;20422;-68
2022/05/16 03:51:30;;;;;;;2.97;2.70;;;11.10;99.90;;;;;;5033738;28;20429;-64
2022/05/16 03:53:56;;;;;;;5.63;3.80;;;11.10;99.90;;;;;;5033916;28;20384;-69
2022/05/16 03:56:24;;;;;;;7.97;3.10;;;11.20;99.90;;;;;;5033234;28;20421;-65
2022/05/16 03:58:50;;;;;;;3.67;2.83;;;11.20;99.90;;;;;;5031727;28;20194;-66
2022/05/16 04:01:16;;;;;;;4.00;3.63;;;11.30;99.90;;;;;;5033037;28;20419;-65
2022/05/16 04:03:42;;;;;;;5.53;3.47;;;11.30;99.90;;;;;;5033530;28;20471;-64
2022/05/16 04:06:08;;;;;;;3.83;2.90;;;11.30;99.90;;;;;;5032140;28;20433;-65
2022/05/16 04:08:34;;;;;;;7.47;3.57;;;11.40;99.90;;;;;;5032685;28;20426;-64
2022/05/16 04:11:02;;;;;;;3.20;3.00;;;11.50;99.90;;;;;;5033238;28;20377;-67
2022/05/16 04:13:28;;;;;;;4.77;3.37;;;11.60;99.90;;;;;;5033706;28;20392;-69
2022/05/16 04:15:54;;;;;;;9.83;3.23;;;11.60;99.90;;;;;;5033315;28;20952;-69
2022/05/16 04:18:20;;;;;;;3.93;3.63;;;11.60;99.90;;;;;;5031992;28;20905;-65
2022/05/16 04:20:46;;;;;;;3.93;3.63;;;11.70;99.90;;;;;;5033343;28;20427;-68
2022/05/16 04:23:12;;;;;;;6.47;3.37;;;11.70;99.90;;;;;;5033057;28;20413;-65
2022/05/16 04:25:38;;;;;;;5.70;3.37;;;11.70;99.90;;;;;;5033557;28;20944;-65
2022/05/16 04:28:05;;;;;;;4.20;3.40;;;11.80;99.90;;;;;;5032287;28;20588;-68
2022/05/16 04:30:31;;;;;;;5.13;3.40;;;11.80;99.90;;;;;;5033543;28;20412;-68
2022/05/16 04:32:57;;;;;;;4.33;3.80;;;11.80;99.90;;;;;;5032951;28;20393;-65
2022/05/16 04:35:23;;;;;;;7.40;3.07;;;11.90;99.90;;;;;;5032906;28;20454;-68
2022/05/16 04:37:49;;;;;;;3.93;3.53;;;11.90;99.90;;;;;;5031898;28;20706;-68
2022/05/16 04:40:14;;;;;;;4.70;2.87;;;11.90;99.90;;;;;;5031771;28;20210;-65
2022/05/16 04:42:40;;;;;;;3.53;3.20;;;11.90;99.90;;;;;;5033279;28;20168;-68
2022/05/16 04:45:12;;;;;;;7.27;3.33;;;11.90;99.90;;;;;;5032878;28;20255;-68
2022/05/16 04:47:38;;;;;;;8.90;3.70;;;12.00;99.90;;;;;;5032224;28;20515;-69
2022/05/16 04:50:05;;;;;;;6.03;4.10;;;12.00;99.90;;;;;;5032925;28;20445;-69
2022/05/16 04:52:32;;;;;;;7.30;3.90;;;12.10;99.90;;;;;;5033168;28;20172;-67
2022/05/16 04:54:59;;;;;;;6.10;3.80;;;11.90;99.90;;;;;;5032410;28;20389;-70
2022/05/16 04:57:25;;;;;;;8.23;4.00;;;11.80;99.90;;;;;;5030765;28;20808;-69
2022/05/16 04:59:51;;;;;;;6.97;4.03;;;11.80;99.90;;;;;;5032953;28;20484;-66
2022/05/16 05:02:17;;;;;;;6.60;3.47;;;11.80;99.90;;;;;;5032876;28;20429;-66
2022/05/16 05:04:43;;;;;;;5.27;3.30;;;11.80;99.90;;;;;;5033157;28;20210;-64
2022/05/16 05:07:09;;;;;;;4.87;3.10;;;11.90;99.90;;;;;;5030548;28;20969;-64
2022/05/16 05:14:32;;;;;;;3.77;3.47;;;11.90;99.90;;;;;;5032612;28;20393;-67
2022/05/16 05:15:09;;;;;;;6.43;4.03;;;12.00;99.90;;;;;;5032739;28;20461;-68
2022/05/16 05:17:35;;;;;;;4.57;3.37;;;12.00;99.90;;;;;;5031741;28;20974;-68
2022/05/16 05:20:02;;;;;;;3.10;2.90;;;12.00;99.90;;;;;;5032368;28;20472;-65
2022/05/16 05:22:28;;;;;;;6.73;3.83;;;12.00;99.90;;;;;;5033093;28;20365;-68
2022/05/16 05:24:54;;;;;;;5.37;3.60;;;12.00;99.90;;;;;;5032741;28;20392;-65
2022/05/16 05:27:20;;;;;;;5.13;3.20;;;12.00;99.90;;;;;;5031899;28;20377;-66
2022/05/16 05:29:48;;;;;;;9.13;3.70;;;12.00;99.90;;;;;;5032112;28;20199;-69
2022/05/16 05:32:15;;;;;;;5.63;3.53;;;12.00;99.90;;;;;;5032845;28;20259;-65
2022/05/16 05:34:41;;;;;;;6.83;3.60;;;12.10;99.90;;;;;;5032679;28;20381;-65
2022/05/16 05:37:06;;;;;;;7.37;3.67;;;12.20;99.90;;;;;;5035230;28;20439;-65
2022/05/16 05:39:34;;;;;;;5.87;3.40;;;12.30;99.90;;;;;;5035924;28;20475;-67
2022/05/16 05:41:59;;;;;;;3.07;2.70;;;12.40;99.90;;;;;;5016627;28;20605;-68
2022/05/16 05:44:25;;;;;;;5.50;3.53;;;12.60;99.90;;;;;;5016521;28;20414;-68
2022/05/16 05:46:51;;;;;;;5.70;3.00;;;12.70;99.90;;;;;;5033936;28;20222;-65
2022/05/16 05:49:17;;;;;;;5.63;3.60;;;12.80;99.90;;;;;;5035825;28;20187;-65
2022/05/16 05:51:43;;;;;;;4.70;3.53;;;12.90;99.90;;;;;;5036031;28;20171;-68
2022/05/16 05:54:09;;;;;;;2.93;2.63;;;13.00;99.90;;;;;;5036046;28;20414;-65
2022/05/16 05:56:34;;;;;;;4.90;2.90;;;13.10;99.90;;;;;;5035493;28;20675;-69
2022/05/16 05:59:00;;;;;;;8.70;3.10;;;13.20;99.90;;;;;;5035972;28;20188;-68
2022/05/16 06:01:26;;;;;;;4.17;2.57;;;13.20;99.90;;;;;;5035992;28;20168;-65
2022/05/16 06:03:53;;;;;;;7.30;3.40;;;13.20;99.90;;;;;;5035783;28;20402;-66
2022/05/16 06:06:19;;;;;;;2.53;2.33;;;13.30;99.90;;;;;;5035293;28;20515;-69
2022/05/16 06:08:45;;;;;;;4.07;3.00;;;13.30;99.90;;;;;;5035294;28;20872;-64
2022/05/16 06:11:10;;;;;;;3.60;3.30;;;13.20;99.90;;;;;;5035777;28;20185;-68
2022/05/16 06:13:38;;;;;;;4.57;3.23;;;13.30;99.90;;;;;;5035715;28;20410;-68
2022/05/16 06:16:08;;;;;;;2.53;2.33;;;13.30;99.90;;;;;;5035495;28;20753;-68
2022/05/16 06:18:34;;;;;;;3.63;2.80;;;13.30;99.90;;;;;;5034931;28;20415;-65
2022/05/16 06:21:00;;;;;;;6.70;2.80;;;13.40;99.90;;;;;;5035726;28;20929;-65
2022/05/16 06:23:26;;;;;;;6.30;4.50;;;13.50;99.90;;;;;;5035331;28;20489;-69
2022/05/16 06:25:52;;;;;;;4.30;2.97;;;13.50;99.90;;;;;;5035538;28;20171;-66
2022/05/16 06:28:22;;;;;;;12.33;2.50;;;13.60;99.90;;;;;;5034634;28;20426;-64
2022/05/16 06:30:51;;;;;;;4.27;2.57;;;13.70;99.90;;;;;;5035582;28;20440;-68
2022/05/16 06:33:18;;;;;;;3.77;2.83;;;13.70;99.90;;;;;;5035488;28;20739;-64
2022/05/16 06:35:45;;;;;;;4.13;2.07;;;13.90;99.90;;;;;;5035341;28;20391;-70
2022/05/16 06:38:16;;;;;;;4.17;2.57;;;14.00;99.90;;;;;;5034487;28;20430;-69
2022/05/16 06:40:46;;;;;;;2.87;2.60;;;14.00;99.90;;;;;;5033845;28;20856;-64
2022/05/16 06:43:12;;;;;;;3.17;2.40;;;14.10;99.90;;;;;;5035242;28;20410;-68
2022/05/16 06:45:38;;;;;;;2.80;2.07;;;14.20;99.90;;;;;;5035262;28;20404;-65
2022/05/16 06:48:04;;;;;;;3.63;2.10;;;14.30;99.90;;;;;;5034021;28;20441;-68
2022/05/16 06:50:32;;;;;;;5.00;2.20;;;14.30;99.90;;;;;;5035109;28;20399;-68
2022/05/16 06:52:59;;;;;;;2.90;2.40;;;14.50;99.90;;;;;;5035159;28;20417;-64
2022/05/16 06:55:25;;;;;;;3.17;2.67;;;14.60;99.90;;;;;;5034905;28;20414;-65
2022/05/16 06:57:51;;;;;;;5.80;3.03;;;14.70;99.90;;;;;;5033785;28;20440;-65
2022/05/16 07:00:18;;;;;;;2.40;2.17;;;14.80;99.90;;;;;;5034769;28;20901;-70
2022/05/16 07:02:44;;;;;;;4.00;2.30;;;14.90;99.90;;;;;;5034790;28;20402;-65
2022/05/16 07:05:10;;;;;;;9.97;2.30;;;15.00;99.90;;;;;;5034937;28;20472;-68
2022/05/16 07:07:35;;;;;;;4.63;2.77;;;15.20;99.90;;;;;;5033676;28;20187;-64
2022/05/16 07:10:08;;;;;;;2.80;2.37;;;15.40;99.90;;;;;;5034385;28;20779;-66
2022/05/16 07:12:34;;;;;;;6.23;2.30;;;15.40;99.90;;;;;;5034274;28;20179;-65
2022/05/16 07:15:00;;;;;;;3.13;2.00;;;15.60;99.90;;;;;;5034445;28;20418;-65
2022/05/16 07:17:26;;;;;;;3.23;1.80;;;15.60;99.90;;;;;;5032636;28;20199;-65
2022/05/16 07:19:51;;;;;;;2.63;1.97;;;15.60;99.90;;;;;;5034344;28;20183;-64
2022/05/16 07:22:22;;;;;;;2.97;2.40;;;15.70;99.90;;;;;;5034586;28;20627;-69
2022/05/16 07:24:50;;;;;;;4.10;1.83;;;15.70;99.90;;;;;;5034101;28;20174;-69
2022/05/16 07:30:01;;;;;;;4.77;2.13;;;15.60;99.90;;;;;;5034410;28;20453;-64
2022/05/16 07:32:41;;;;;;;3.57;2.07;;;15.50;99.90;;;;;;5033547;28;20945;-65
2022/05/16 07:35:11;;;;;;;2.97;2.00;;;15.60;99.90;;;;;;5034263;28;20470;-65
2022/05/16 07:37:37;;;;;;;6.50;3.13;;;15.70;99.90;;;;;;5033016;28;20466;-64
2022/05/16 07:40:08;;;;;;;6.13;2.67;;;15.90;99.90;;;;;;5034190;28;20418;-65
2022/05/16 07:42:38;;;;;;;5.00;1.60;;;16.20;99.90;;;;;;5033795;28;20167;-69
2022/05/16 07:45:06;;;;;;;3.07;2.10;;;16.50;99.90;;;;;;5034064;28;20410;-69
2022/05/16 07:47:32;;;;;;;3.20;1.50;;;16.70;99.90;;;;;;5032911;28;20810;-65
2022/05/16 07:49:59;;;;;;;2.20;1.73;;;16.60;99.90;;;;;;5033801;28;20418;-66
2022/05/16 07:52:25;;;;;;;3.20;1.90;;;16.60;99.90;;;;;;5033540;28;20402;-65
2022/05/16 07:54:52;;;;;;;6.93;2.40;;;16.70;99.90;;;;;;5033808;28;20414;-65
2022/05/16 07:57:18;;;;;;;5.70;2.27;;;16.80;99.90;;;;;;5032340;28;20968;-66
2022/05/16 07:59:45;;;;;;;7.23;2.80;;;16.80;99.90;;;;;;5032398;28;20505;-68
2022/05/16 08:02:12;;;;;;;2.00;1.90;;;16.90;99.90;;;;;;5033146;28;20168;-64
2022/05/16 08:04:39;;;;;;;2.23;2.03;;;16.90;99.90;;;;;;5032163;28;20910;-68
2022/05/16 08:07:04;;;;;;;3.40;2.03;;;17.00;99.90;;;;;;5032028;28;20414;-65
2022/05/16 08:12:28;;;;;;;3.93;2.47;;;17.00;99.90;;;;;;5033667;28;20217;-69
2022/05/16 08:14:55;;;;;;;2.20;2.00;;;17.20;99.90;;;;;;5033341;28;20810;-65
2022/05/16 08:17:24;;;;;;;3.87;2.80;;;17.30;99.90;;;;;;5031788;28;20478;-68
2022/05/16 08:19:51;;;;;;;2.37;2.17;;;17.50;99.90;;;;;;5032636;28;20442;-69
2022/05/16 08:22:18;;;;;;;3.33;1.97;;;17.50;99.90;;;;;;5033341;28;20425;-64
2022/05/16 08:24:44;;;;;;;4.80;2.17;;;17.60;97.60;;;;;;5033036;28;20407;-69
2022/05/16 08:27:10;;;;;;;2.50;2.30;;;17.60;98.00;;;;;;5031992;28;20422;-69
2022/05/16 08:29:36;;;;;;;2.20;2.00;;;17.70;94.90;;;;;;5033298;28;20425;-64
2022/05/16 08:32:03;;;;;;;3.30;2.10;;;17.70;94.80;;;;;;5032668;28;20406;-64
2022/05/16 08:34:30;;;;;;;2.03;1.70;;;17.90;94.90;;;;;;5033609;28;20271;-69
2022/05/16 08:39:56;;;;;;;5.17;2.47;;;18.10;95.00;;;;;;5033190;28;20480;-65
2022/05/16 08:43:08;;;;;;;3.50;2.20;;;18.30;95.10;;;;;;5032327;28;20425;-69
2022/05/16 08:45:40;;;;;;;3.03;2.10;;;18.60;95.20;;;;;;5001552;28;20438;-70
2022/05/16 08:48:26;;;;;;;3.37;2.27;;;18.80;95.30;;;;;;5032240;28;20430;-65
2022/05/16 08:51:04;;;;;;;5.10;1.70;;;19.00;95.40;;;;;;5032279;28;20417;-68
2022/05/16 08:54:04;;;;;;;2.13;1.70;;;19.10;95.40;;;;;;5032943;28;20774;-69
2022/05/16 08:56:33;;;;;;;1.77;1.63;;;19.40;95.30;;;;;;5032229;28;20446;-72
2022/05/16 08:59:07;;;;;;;1.80;1.50;;;19.70;95.60;;;;;;5031559;28;20449;-66
2022/05/16 09:01:50;;;;;;;1.87;1.67;;;19.60;91.10;;;;;;5032963;28;20402;-66
2022/05/16 09:04:26;;;;;;;2.07;1.83;;;19.40;92.10;;;;;;5032162;28;20421;-69
2022/05/16 09:07:07;;;;;;;3.30;2.03;;;19.40;94.60;;;;;;5032140;28;20491;-65
2022/05/16 09:09:48;;;;;;;3.57;2.13;;;19.40;90.70;;;;;;5033343;28;20791;-65
2022/05/16 09:16:13;;;;;;;3.23;1.73;;;19.00;82.50;;;;;;5032358;28;20429;-65
2022/05/16 09:19:11;;;;;;;3.00;2.80;;;19.10;82.00;;;;;;5020072;28;20922;-68
2022/05/16 09:22:15;;;;;;;2.83;1.73;;;19.10;80.50;;;;;;5035867;28;20838;-65
2022/05/16 09:24:50;;;;;;;1.57;1.40;;;19.10;77.00;;;;;;5036412;28;20420;-65
2022/05/16 09:30:14;;;;;;;5.27;1.70;;;19.50;74.80;;;;;;5036122;28;20441;-65
2022/05/16 09:33:02;;;;;;;2.20;1.67;;;19.80;71.40;;;;;;5036645;28;20406;-69
2022/05/16 09:35:36;;;;;;;3.00;1.90;;;19.90;72.30;;;;;;5035143;28;20448;-68
2022/05/16 09:38:04;;;;;;;2.90;1.83;;;20.00;74.20;;;;;;5034117;28;20500;-65
2022/05/16 09:40:53;;;;;;;3.23;1.20;;;20.10;68.10;;;;;;5036089;28;20422;-69
2022/05/16 09:43:23;;;;;;;1.83;1.47;;;20.40;71.50;;;;;;5036416;28;20399;-70
2022/05/16 09:46:09;;;;;;;6.90;1.60;;;20.70;69.20;;;;;;5036070;28;20425;-65
2022/05/16 09:48:36;;;;;;;3.33;1.67;;;20.80;64.00;;;;;;5034993;28;20430;-68
2022/05/16 09:51:05;;;;;;;6.77;1.70;;;20.80;63.00;;;;;;5036210;28;20422;-68
2022/05/16 09:53:37;;;;;;;3.10;1.93;;;20.90;64.40;;;;;;5035648;28;20453;-65
2022/05/16 09:56:42;;;;;;;2.40;1.60;;;21.00;57.50;;;;;;5035592;28;20422;-64
2022/05/16 09:59:09;;;;;;;3.47;1.80;;;21.00;55.80;;;;;;5035844;28;20802;-69
2022/05/16 10:01:40;;;;;;;5.63;1.83;;;21.00;50.00;;;;;;5035972;28;20795;-65
2022/05/16 10:04:20;;;;;;;5.30;1.60;;;21.00;54.80;;;;;;5035713;28;20407;-68
2022/05/16 10:07:00;;;;;;;2.00;1.80;;;21.10;50.80;;;;;;5035067;28;20402;-64
2022/05/16 10:09:33;;;;;;;2.93;1.60;;;21.10;50.10;;;;;;5035062;28;20528;-69
2022/05/16 10:11:59;;;;;;;2.37;1.70;;;21.20;48.70;;;;;;5035736;28;20419;-64
2022/05/16 10:14:26;;;;;;;4.10;1.90;;;21.30;48.90;;;;;;5035544;28;20434;-69
2022/05/16 10:16:53;;;;;;;1.40;1.30;;;21.30;48.70;;;;;;5034917;28;20462;-64
2022/05/16 10:19:22;;;;;;;2.13;1.60;;;21.40;47.70;;;;;;5034418;28;20512;-65
2022/05/16 10:22:01;;;;;;;1.97;1.77;;;21.50;52.20;;;;;;5034779;28;20410;-65
2022/05/16 10:24:31;;;;;;;11.20;2.27;;;21.90;52.70;;;;;;5035420;28;20825;-69
2022/05/16 10:27:05;;;;;;;2.10;1.67;;;22.00;46.70;;;;;;5034346;28;20418;-67
2022/05/16 10:29:34;;;;;;;2.13;1.43;;;22.20;50.00;;;;;;5034042;28;20436;-69
2022/05/16 10:35:30;;;;;;;3.60;1.60;;;23.00;51.90;;;;;;5035287;28;20480;-69
2022/05/16 10:38:02;;;;;;;2.00;1.80;;;23.00;45.10;;;;;;5034204;28;20472;-65
2022/05/16 10:40:40;;;;;;;3.83;2.13;;;22.20;38.40;;;;;;5035054;28;20423;-69
2022/05/16 10:43:12;;;;;;;2.67;2.00;;;22.00;44.10;;;;;;5035266;28;20398;-65
2022/05/16 10:45:42;;;;;;;2.17;1.97;;;22.70;54.40;;;;;;5034572;28;20422;-70
2022/05/16 10:48:24;;;;;;;2.80;1.77;;;23.40;48.20;;;;;;5033875;28;20446;-65
2022/05/16 10:51:19;;;;;;;2.70;1.80;;;23.70;50.90;;;;;;5035187;28;20914;-65
2022/05/16 10:54:06;;;;;;;2.40;1.83;;;24.00;45.10;;;;;;5034371;28;20422;-69
2022/05/16 10:56:59;;;;;;;1.70;1.60;;;24.00;45.90;;;;;;5034089;28;20457;-70
2022/05/16 10:59:43;;;;;;;2.47;1.80;;;24.80;46.90;;;;;;5034824;28;20429;-68
2022/05/16 11:02:23;;;;;;;3.70;2.30;;;25.10;47.40;;;;;;5034542;28;20763;-65
2022/05/16 11:05:16;;;;;;;3.53;1.97;;;25.40;35.50;;;;;;5033691;28;20887;-65
2022/05/16 11:08:09;;;;;;;2.47;2.10;;;25.80;39.60;;;;;;5033338;28;20803;-68
2022/05/16 11:10:53;;;;;;;1.90;1.50;;;26.40;35.60;;;;;;5034880;28;20763;-68
2022/05/16 11:13:56;;;;;;;3.67;1.70;;;25.80;21.90;;;;;;5013947;28;20514;-65
2022/05/16 11:16:29;;;;;;;2.80;2.07;;;25.00;18.90;;;;;;5019293;28;20453;-70
2022/05/16 11:19:16;;;;;;;2.80;1.67;;;24.80;20.00;;;;;;5033582;28;20523;-69
2022/05/16 11:22:05;;;;;;;2.50;2.10;;;25.30;24.40;;;;;;5034243;28;20822;-69
2022/05/16 11:24:51;;;;;;;3.77;1.90;;;25.30;15.90;;;;;;5032973;28;20490;-65
2022/05/16 11:27:26;;;;;;;2.87;1.87;;;24.80;14.20;;;;;;5033285;28;20480;-65
2022/05/16 11:29:57;;;;;;;9.43;2.70;;;25.30;17.20;;;;;;5034309;28;20433;-65
2022/05/16 11:32:40;;;;;;;2.37;1.43;;;25.50;17.40;;;;;;5032526;28;20418;-68
2022/05/16 11:35:31;;;;;;;4.30;1.97;;;25.70;17.20;;;;;;5034122;28;20457;-65
2022/05/16 11:38:18;;;;;;;7.33;3.00;;;25.40;11.60;;;;;;5032588;28;20473;-69
2022/05/16 11:41:05;;;;;;;2.83;2.10;;;25.20;15.70;;;;;;5034261;28;20418;-65
2022/05/16 11:43:34;;;;;;;2.40;2.20;;;24.40;12.10;;;;;;5033601;28;20487;-65
2022/05/16 11:46:17;;;;;;;2.27;2.07;;;24.20;16.00;;;;;;5034129;28;20402;-65
2022/05/16 11:49:20;;;;;;;6.50;1.97;;;24.80;24.00;;;;;;5013578;28;20427;-64
2022/05/16 11:52:08;;;;;;;2.70;1.80;;;25.10;20.90;;;;;;5018746;28;20825;-69
2022/05/16 11:54:37;;;;;;;2.57;1.67;;;25.50;21.60;;;;;;5033919;28;20947;-70
2022/05/16 12:02:45;;;;;;;2.43;1.90;;;25.20;15.50;;;;;;5033051;28;20845;-65
2022/05/16 12:05:32;;;;;;;3.10;1.70;;;25.00;11.70;;;;;;5033916;28;20736;-69
2022/05/16 12:08:12;;;;;;;4.17;2.60;;;25.20;18.30;;;;;;5032359;28;20442;-70
2022/05/16 12:10:57;;;;;;;3.83;2.40;;;25.60;17.40;;;;;;5033560;28;20401;-71
2022/05/16 12:13:27;;;;;;;1.90;1.70;;;25.50;16.40;;;;;;5032238;28;20491;-68
2022/05/16 12:16:25;;;;;;;6.17;2.10;;;25.90;20.60;;;;;;5033534;28;20496;-67
2022/05/16 12:19:16;;;;;;;4.97;2.30;;;26.50;19.80;;;;;;5032202;28;20473;-69
2022/05/16 12:21:52;;;;;;;5.43;1.60;;;26.50;20.80;;;;;;5032785;28;20399;-65
2022/05/16 12:24:30;;;;;;;6.27;2.27;;;26.90;20.30;;;;;;5033512;28;20501;-65
2022/05/16 12:27:27;;;;;;;7.70;2.10;;;27.30;19.20;;;;;;5032094;28;20410;-65
2022/05/16 12:29:58;;;;;;;10.00;2.20;;;27.30;16.60;;;;;;5033578;28;20794;-63
2022/05/16 12:32:30;;;;;;;6.80;2.20;;;27.20;15.90;;;;;;5033064;28;20476;-65
2022/05/16 12:35:09;;;;;;;3.10;1.97;;;27.00;15.10;;;;;;5033229;28;20525;-68
2022/05/16 12:37:37;;;;;;;6.13;2.30;;;26.30;11.30;;;;;;5031636;28;20477;-67
2022/05/16 12:40:11;;;;;;;3.00;1.80;;;25.60;10.10;;;;;;5033351;28;20837;-71
2022/05/16 12:43:06;;;;;;;3.60;2.10;;;25.40;13.70;;;;;;5033069;28;20764;-67
2022/05/16 12:45:43;;;;;;;7.83;2.60;;;25.60;14.40;;;;;;5036194;28;20418;-72
2022/05/16 12:48:15;;;;;;;5.10;2.47;;;25.10;12.10;;;;;;5035177;28;20460;-71
2022/05/16 12:51:14;;;;;;;4.10;1.90;;;24.10;7.90;;;;;;5036301;28;20444;-65
2022/05/16 12:54:21;;;;;;;5.40;3.20;;;23.40;4.70;;;;;;5037479;28;20398;-65
2022/05/16 12:56:54;;;;;;;3.60;2.40;;;22.50;6.40;;;;;;5014798;28;20509;-65
2022/05/16 12:59:59;;;;;;;5.43;2.57;;;22.10;10.30;;;;;;5037041;28;20434;-65
2022/05/16 13:02:43;;;;;;;4.30;2.50;;;22.50;19.00;;;;;;5017543;28;20421;-65
2022/05/16 13:05:23;;;;;;;4.90;3.60;;;22.70;19.90;;;;;;5028772;28;20790;-70
2022/05/16 13:07:51;;;;;;;3.17;2.73;;;22.70;19.10;;;;;;5036199;28;20674;-70
2022/05/16 13:10:23;;;;;;;3.77;2.20;;;21.90;16.70;;;;;;5035000;28;20495;-70
2022/05/16 13:13:25;;;;;;;5.27;2.80;;;21.90;23.30;;;;;;5034336;28;20442;-64
2022/05/16 13:15:59;;;;;;;9.20;2.70;;;21.70;20.30;;;;;;5015406;28;20430;-70
2022/05/16 13:18:29;;;;;;;4.63;2.30;;;21.90;24.90;;;;;;5030975;28;20472;-70
2022/05/16 13:21:00;;;;;;;8.23;2.77;;;22.10;26.90;;;;;;5036676;28;20413;-69
2022/05/16 13:23:25;;;;;;;6.27;2.80;;;22.20;25.10;;;;;;5036054;28;20464;-64
2022/05/16 13:31:33;;;;;;;3.00;2.40;;;22.00;24.30;;;;;;5036843;28;20456;-65
2022/05/16 13:34:01;;;;;;;3.30;2.30;;;22.00;23.70;;;;;;5035628;28;20696;-70
2022/05/16 13:36:28;;;;;;;3.33;2.37;;;22.00;30.70;;;;;;5036196;28;20445;-70
2022/05/16 13:39:00;;;;;;;8.20;2.57;;;22.30;30.60;;;;;;5035876;28;20915;-64
2022/05/16 13:41:28;;;;;;;7.23;2.50;;;22.00;22.70;;;;;;5036423;28;20403;-70
2022/05/16 13:43:54;;;;;;;5.10;3.00;;;22.10;23.70;;;;;;5034554;28;20492;-70
2022/05/16 13:46:21;;;;;;;3.57;1.93;;;22.40;22.20;;;;;;5036183;28;20407;-71
2022/05/16 13:49:08;;;;;;;2.80;1.90;;;22.80;25.40;;;;;;5035010;28;20203;-65
2022/05/16 13:51:41;;;;;;;4.03;2.23;;;23.70;25.30;;;;;;5036044;28;20411;-67